Terminal Aerodrome Forecast
Issued by NWS

Current Version | Previous Version | Text Only | Print | Product List | Glossary On
Versions: 1 2 3 4 5 6 7 8 9 10 11 12 13 14 15 16
000 FTUS41 KILN 261945 AAA TAFLUK TAF AMD KLUK 261945Z 2620/2718 20007KT P6SM VCTS SCT050CB BKN100 TEMPO 2620/2621 27015G30KT 1SM -TSRA BKN025CB FM262300 24007KT P6SM VCTS BKN050CB FM270100 VRB03KT P6SM SCT050 BKN200 FM270900 VRB02KT 4SM BR SCT050 BKN200 TEMPO 2709/2711 2SM BR FM271300 31004KT P6SM SCT050 BKN200=

USA.gov is the U.S. government's official web portal to all federal, state and local government web resources and services.